sensor_id;sensor_type;location;lat;lon;timestamp;temperature;humidity
16388;DHT22;8303;53.446;9.988;2023-05-16T04:46:04;10.10;1.00
16388;DHT22;8303;53.446;9.988;2023-05-16T04:48:32;10.00;1.00
16388;DHT22;8303;53.446;9.988;2023-05-16T04:50:59;10.10;1.00
16388;DHT22;8303;53.446;9.988;2023-05-16T04:53:28;10.00;1.00
16388;DHT22;8303;53.446;9.988;2023-05-16T04:55:56;10.10;1.00
16388;DHT22;8303;53.446;9.988;2023-05-16T04:58:23;10.00;1.00
16388;DHT22;8303;53.446;9.988;2023-05-16T05:00:50;10.00;1.00
16388;DHT22;8303;53.446;9.988;2023-05-16T05:03:19;9.90;1.00
16388;DHT22;8303;53.446;9.988;2023-05-16T05:05:46;9.90;1.00
16388;DHT22;8303;53.446;9.988;2023-05-16T05:08:14;9.90;1.00
16388;DHT22;8303;53.446;9.988;2023-05-16T05:10:41;9.90;1.00
16388;DHT22;8303;53.446;9.988;2023-05-16T05:13:09;10.00;1.00
16388;DHT22;8303;53.446;9.988;2023-05-16T05:15:36;10.10;1.00
16388;DHT22;8303;53.446;9.988;2023-05-16T05:18:04;10.10;1.00
16388;DHT22;8303;53.446;9.988;2023-05-16T05:20:32;10.20;1.00
16388;DHT22;8303;53.446;9.988;2023-05-16T05:23:01;10.10;1.00
16388;DHT22;8303;53.446;9.988;2023-05-16T05:25:28;10.20;1.00
16388;DHT22;8303;53.446;9.988;2023-05-16T05:27:56;10.10;1.00
16388;DHT22;8303;53.446;9.988;2023-05-16T05:30:23;10.00;1.00
16388;DHT22;8303;53.446;9.988;2023-05-16T05:32:50;10.00;1.00
16388;DHT22;8303;53.446;9.988;2023-05-16T05:35:18;10.10;1.00
16388;DHT22;8303;53.446;9.988;2023-05-16T05:37:46;10.20;1.00
16388;DHT22;8303;53.446;9.988;2023-05-16T05:40:14;10.30;1.00
16388;DHT22;8303;53.446;9.988;2023-05-16T05:42:42;10.30;1.00
16388;DHT22;8303;53.446;9.988;2023-05-16T05:45:10;10.30;1.00
16388;DHT22;8303;53.446;9.988;2023-05-16T05:47:37;10.40;1.00
16388;DHT22;8303;53.446;9.988;2023-05-16T05:50:06;10.40;1.00
16388;DHT22;8303;53.446;9.988;2023-05-16T05:52:33;10.20;1.00
16388;DHT22;8303;53.446;9.988;2023-05-16T05:55:03;10.40;1.00
16388;DHT22;8303;53.446;9.988;2023-05-16T05:57:30;10.50;1.00
16388;DHT22;8303;53.446;9.988;2023-05-16T05:59:58;10.70;1.00
16388;DHT22;8303;53.446;9.988;2023-05-16T06:02:26;10.70;1.00
16388;DHT22;8303;53.446;9.988;2023-05-16T06:04:53;10.90;1.00
16388;DHT22;8303;53.446;9.988;2023-05-16T06:07:21;10.80;1.00
16388;DHT22;8303;53.446;9.988;2023-05-16T06:09:48;10.80;1.00
16388;DHT22;8303;53.446;9.988;2023-05-16T06:12:17;10.90;1.00
16388;DHT22;8303;53.446;9.988;2023-05-16T06:14:44;10.70;1.00
16388;DHT22;8303;53.446;9.988;2023-05-16T06:17:14;10.70;1.00
16388;DHT22;8303;53.446;9.988;2023-05-16T06:19:41;10.80;1.00
16388;DHT22;8303;53.446;9.988;2023-05-16T06:22:11;10.80;1.00
16388;DHT22;8303;53.446;9.988;2023-05-16T06:24:38;10.90;1.00
16388;DHT22;8303;53.446;9.988;2023-05-16T06:27:06;11.00;1.00
16388;DHT22;8303;53.446;9.988;2023-05-16T06:29:34;11.10;1.00
16388;DHT22;8303;53.446;9.988;2023-05-16T06:32:02;11.00;1.00
16388;DHT22;8303;53.446;9.988;2023-05-16T06:34:29;10.90;1.00
16388;DHT22;8303;53.446;9.988;2023-05-16T06:36:56;11.00;1.00
16388;DHT22;8303;53.446;9.988;2023-05-16T06:39:24;10.80;1.00
16388;DHT22;8303;53.446;9.988;2023-05-16T06:41:51;10.70;1.00
16388;DHT22;8303;53.446;9.988;2023-05-16T06:44:19;10.60;1.00
16388;DHT22;8303;53.446;9.988;2023-05-16T06:46:47;10.80;1.00
16388;DHT22;8303;53.446;9.988;2023-05-16T06:49:15;11.20;1.00
16388;DHT22;8303;53.446;9.988;2023-05-16T06:51:42;11.50;1.00
16388;DHT22;8303;53.446;9.988;2023-05-16T06:54:09;11.60;1.00
16388;DHT22;8303;53.446;9.988;2023-05-16T06:56:37;11.40;1.00
16388;DHT22;8303;53.446;9.988;2023-05-16T06:59:04;11.50;1.00
16388;DHT22;8303;53.446;9.988;2023-05-16T07:01:31;11.50;1.00
16388;DHT22;8303;53.446;9.988;2023-05-16T07:04:00;11.50;1.00
16388;DHT22;8303;53.446;9.988;2023-05-16T07:06:27;11.40;1.00
16388;DHT22;8303;53.446;9.988;2023-05-16T07:08:54;11.50;1.00
16388;DHT22;8303;53.446;9.988;2023-05-16T07:11:24;11.50;1.00
16388;DHT22;8303;53.446;9.988;2023-05-16T07:13:51;11.70;1.00
16388;DHT22;8303;53.446;9.988;2023-05-16T07:16:18;11.60;1.00
16388;DHT22;8303;53.446;9.988;2023-05-16T07:18:45;11.50;1.00
16388;DHT22;8303;53.446;9.988;2023-05-16T07:21:14;11.40;1.00
16388;DHT22;8303;53.446;9.988;2023-05-16T07:23:41;11.50;1.00
16388;DHT22;8303;53.446;9.988;2023-05-16T07:26:08;11.50;99.90
16388;DHT22;8303;53.446;9.988;2023-05-16T07:28:36;11.50;99.90
16388;DHT22;8303;53.446;9.988;2023-05-16T07:31:03;11.60;99.90
16388;DHT22;8303;53.446;9.988;2023-05-16T07:33:31;11.80;99.90
16388;DHT22;8303;53.446;9.988;2023-05-16T07:35:59;11.90;99.90
16388;DHT22;8303;53.446;9.988;2023-05-16T07:38:28;12.00;99.90
16388;DHT22;8303;53.446;9.988;2023-05-16T07:40:59;12.10;99.90
16388;DHT22;8303;53.446;9.988;2023-05-16T07:43:26;12.20;99.90
16388;DHT22;8303;53.446;9.988;2023-05-16T07:45:54;12.50;99.90
16388;DHT22;8303;53.446;9.988;2023-05-16T07:48:21;12.60;99.90
16388;DHT22;8303;53.446;9.988;2023-05-16T07:50:48;12.60;99.90
16388;DHT22;8303;53.446;9.988;2023-05-16T07:53:16;13.00;99.90
16388;DHT22;8303;53.446;9.988;2023-05-16T07:55:44;12.90;99.90
16388;DHT22;8303;53.446;9.988;2023-05-16T07:58:11;12.80;99.90
16388;DHT22;8303;53.446;9.988;2023-05-16T08:00:39;12.30;99.90
16388;DHT22;8303;53.446;9.988;2023-05-16T08:03:06;12.00;99.90
16388;DHT22;8303;53.446;9.988;2023-05-16T08:05:34;11.90;99.90
16388;DHT22;8303;53.446;9.988;2023-05-16T08:08:01;11.80;99.90
16388;DHT22;8303;53.446;9.988;2023-05-16T08:10:29;12.00;99.90
16388;DHT22;8303;53.446;9.988;2023-05-16T08:12:58;12.20;99.90
16388;DHT22;8303;53.446;9.988;2023-05-16T08:15:26;12.40;99.90
16388;DHT22;8303;53.446;9.988;2023-05-16T08:17:56;12.70;99.90
16388;DHT22;8303;53.446;9.988;2023-05-16T08:20:24;12.80;99.90
16388;DHT22;8303;53.446;9.988;2023-05-16T08:22:51;12.80;99.90
16388;DHT22;8303;53.446;9.988;2023-05-16T08:25:19;12.90;99.90
16388;DHT22;8303;53.446;9.988;2023-05-16T08:27:49;13.10;99.90
16388;DHT22;8303;53.446;9.988;2023-05-16T08:30:18;13.50;99.90
16388;DHT22;8303;53.446;9.988;2023-05-16T08:32:46;13.20;99.90
16388;DHT22;8303;53.446;9.988;2023-05-16T08:35:13;13.10;99.90
16388;DHT22;8303;53.446;9.988;2023-05-16T08:37:40;13.20;99.90
16388;DHT22;8303;53.446;9.988;2023-05-16T08:40:09;12.70;99.90
16388;DHT22;8303;53.446;9.988;2023-05-16T08:42:37;12.50;99.90
16388;DHT22;8303;53.446;9.988;2023-05-16T08:45:06;12.40;99.90
16388;DHT22;8303;53.446;9.988;2023-05-16T08:47:35;12.20;99.90
16388;DHT22;8303;53.446;9.988;2023-05-16T08:50:08;12.10;99.90
16388;DHT22;8303;53.446;9.988;2023-05-16T08:52:37;11.90;99.90
16388;DHT22;8303;53.446;9.988;2023-05-16T08:55:07;12.00;99.90
16388;DHT22;8303;53.446;9.988;2023-05-16T08:57:36;12.20;99.90
16388;DHT22;8303;53.446;9.988;2023-05-16T09:00:05;12.60;99.90
16388;DHT22;8303;53.446;9.988;2023-05-16T09:02:38;13.00;99.90
16388;DHT22;8303;53.446;9.988;2023-05-16T09:05:09;13.20;99.90
16388;DHT22;8303;53.446;9.988;2023-05-16T09:07:37;13.20;99.90
16388;DHT22;8303;53.446;9.988;2023-05-16T09:10:06;13.20;99.90
16388;DHT22;8303;53.446;9.988;2023-05-16T09:12:34;12.80;99.90
16388;DHT22;8303;53.446;9.988;2023-05-16T09:15:02;12.30;99.90
16388;DHT22;8303;53.446;9.988;2023-05-16T09:17:34;12.10;99.90
16388;DHT22;8303;53.446;9.988;2023-05-16T09:20:10;12.20;99.90
16388;DHT22;8303;53.446;9.988;2023-05-16T09:22:38;12.40;99.90
16388;DHT22;8303;53.446;9.988;2023-05-16T09:25:07;12.80;99.90
16388;DHT22;8303;53.446;9.988;2023-05-16T09:27:34;13.30;99.90
16388;DHT22;8303;53.446;9.988;2023-05-16T09:30:01;13.70;99.90
16388;DHT22;8303;53.446;9.988;2023-05-16T09:32:30;13.80;99.90
16388;DHT22;8303;53.446;9.988;2023-05-16T09:34:58;13.10;99.90
16388;DHT22;8303;53.446;9.988;2023-05-16T09:37:27;12.90;99.90
16388;DHT22;8303;53.446;9.988;2023-05-16T09:39:54;12.50;99.90
16388;DHT22;8303;53.446;9.988;2023-05-16T09:42:22;12.60;99.90
16388;DHT22;8303;53.446;9.988;2023-05-16T09:44:54;13.20;99.90
16388;DHT22;8303;53.446;9.988;2023-05-16T09:47:22;13.60;99.90
16388;DHT22;8303;53.446;9.988;2023-05-16T09:49:52;14.10;99.90
16388;DHT22;8303;53.446;9.988;2023-05-16T09:52:19;14.00;99.90
16388;DHT22;8303;53.446;9.988;2023-05-16T09:54:48;13.70;99.90
16388;DHT22;8303;53.446;9.988;2023-05-16T09:57:17;13.10;99.90
16388;DHT22;8303;53.446;9.988;2023-05-16T09:59:45;12.70;99.90
16388;DHT22;8303;53.446;9.988;2023-05-16T10:02:13;12.50;99.90
16388;DHT22;8303;53.446;9.988;2023-05-16T10:04:40;12.60;99.90
16388;DHT22;8303;53.446;9.988;2023-05-16T10:07:09;12.50;99.90
16388;DHT22;8303;53.446;9.988;2023-05-16T10:09:40;12.30;99.90
16388;DHT22;8303;53.446;9.988;2023-05-16T10:12:12;12.60;99.90
16388;DHT22;8303;53.446;9.988;2023-05-16T10:14:44;13.20;99.90
16388;DHT22;8303;53.446;9.988;2023-05-16T10:17:15;13.60;99.90
16388;DHT22;8303;53.446;9.988;2023-05-16T10:19:42;13.90;99.90
16388;DHT22;8303;53.446;9.988;2023-05-16T10:22:11;13.70;99.90
16388;DHT22;8303;53.446;9.988;2023-05-16T10:24:48;14.30;99.90
16388;DHT22;8303;53.446;9.988;2023-05-16T10:27:20;13.70;99.90
16388;DHT22;8303;53.446;9.988;2023-05-16T10:29:48;13.20;99.90
16388;DHT22;8303;53.446;9.988;2023-05-16T10:32:16;13.00;99.90
16388;DHT22;8303;53.446;9.988;2023-05-16T10:34:45;12.80;99.90
16388;DHT22;8303;53.446;9.988;2023-05-16T10:37:13;12.90;99.90
16388;DHT22;8303;53.446;9.988;2023-05-16T10:39:40;13.10;99.90
16388;DHT22;8303;53.446;9.988;2023-05-16T10:42:08;13.60;99.90
16388;DHT22;8303;53.446;9.988;2023-05-16T10:44:38;14.00;99.90
16388;DHT22;8303;53.446;9.988;2023-05-16T10:47:05;14.60;99.90
16388;DHT22;8303;53.446;9.988;2023-05-16T10:49:32;14.50;99.90
16388;DHT22;8303;53.446;9.988;2023-05-16T10:52:06;14.20;99.90
16388;DHT22;8303;53.446;9.988;2023-05-16T10:54:35;14.00;99.90
16388;DHT22;8303;53.446;9.988;2023-05-16T10:57:05;14.00;99.90
16388;DHT22;8303;53.446;9.988;2023-05-16T10:59:42;14.40;99.90
16388;DHT22;8303;53.446;9.988;2023-05-16T11:02:25;14.60;99.90
16388;DHT22;8303;53.446;9.988;2023-05-16T11:04:54;14.90;99.90
16388;DHT22;8303;53.446;9.988;2023-05-16T11:07:24;14.20;99.90
16388;DHT22;8303;53.446;9.988;2023-05-16T11:10:02;13.50;99.90
16388;DHT22;8303;53.446;9.988;2023-05-16T11:12:43;12.40;99.90
16388;DHT22;8303;53.446;9.988;2023-05-16T11:15:19;12.10;99.90
16388;DHT22;8303;53.446;9.988;2023-05-16T11:17:47;12.00;99.90
16388;DHT22;8303;53.446;9.988;2023-05-16T11:20:28;12.10;99.90
16388;DHT22;8303;53.446;9.988;2023-05-16T11:23:21;12.30;99.90
16388;DHT22;8303;53.446;9.988;2023-05-16T11:25:52;12.50;99.90
16388;DHT22;8303;53.446;9.988;2023-05-16T11:28:20;11.90;99.90
16388;DHT22;8303;53.446;9.988;2023-05-16T11:30:50;11.40;1.00
16388;DHT22;8303;53.446;9.988;2023-05-16T11:33:20;11.00;1.00
16388;DHT22;8303;53.446;9.988;2023-05-16T11:36:01;11.00;1.00
16388;DHT22;8303;53.446;9.988;2023-05-16T11:38:30;11.30;1.00
16388;DHT22;8303;53.446;9.988;2023-05-16T11:41:05;11.80;1.00
16388;DHT22;8303;53.446;9.988;2023-05-16T11:43:40;11.80;1.00
16388;DHT22;8303;53.446;9.988;2023-05-16T11:46:11;12.10;1.00
16388;DHT22;8303;53.446;9.988;2023-05-16T11:48:39;12.60;99.90
16388;DHT22;8303;53.446;9.988;2023-05-16T11:51:07;13.20;99.90
16388;DHT22;8303;53.446;9.988;2023-05-16T11:53:36;13.90;99.90
16388;DHT22;8303;53.446;9.988;2023-05-16T11:56:07;13.70;99.90
16388;DHT22;8303;53.446;9.988;2023-05-16T11:58:34;13.20;99.90
16388;DHT22;8303;53.446;9.988;2023-05-16T12:01:03;13.20;99.90
16388;DHT22;8303;53.446;9.988;2023-05-16T12:03:32;13.20;99.90
16388;DHT22;8303;53.446;9.988;2023-05-16T12:06:01;13.70;99.90
16388;DHT22;8303;53.446;9.988;2023-05-16T12:08:29;14.10;99.90
16388;DHT22;8303;53.446;9.988;2023-05-16T12:10:56;14.20;99.90
16388;DHT22;8303;53.446;9.988;2023-05-16T12:13:24;14.00;99.90
16388;DHT22;8303;53.446;9.988;2023-05-16T12:15:52;13.90;99.90
16388;DHT22;8303;53.446;9.988;2023-05-16T12:18:19;13.80;99.90
16388;DHT22;8303;53.446;9.988;2023-05-16T12:20:48;13.70;99.90
16388;DHT22;8303;53.446;9.988;2023-05-16T12:23:17;13.80;99.90
16388;DHT22;8303;53.446;9.988;2023-05-16T12:25:45;13.80;99.90
16388;DHT22;8303;53.446;9.988;2023-05-16T12:28:14;13.80;99.90
16388;DHT22;8303;53.446;9.988;2023-05-16T12:30:43;13.20;99.90
16388;DHT22;8303;53.446;9.988;2023-05-16T12:33:14;12.60;99.90
16388;DHT22;8303;53.446;9.988;2023-05-16T12:35:42;12.60;99.90
16388;DHT22;8303;53.446;9.988;2023-05-16T12:38:12;12.60;99.90
16388;DHT22;8303;53.446;9.988;2023-05-16T12:40:40;13.00;99.90
16388;DHT22;8303;53.446;9.988;2023-05-16T12:43:12;13.30;99.90
16388;DHT22;8303;53.446;9.988;2023-05-16T12:45:49;13.70;99.90
16388;DHT22;8303;53.446;9.988;2023-05-16T12:48:17;13.80;99.90
16388;DHT22;8303;53.446;9.988;2023-05-16T12:50:44;14.10;99.90
16388;DHT22;8303;53.446;9.988;2023-05-16T12:53:16;13.80;99.90
16388;DHT22;8303;53.446;9.988;2023-05-16T12:55:44;13.80;99.90
16388;DHT22;8303;53.446;9.988;2023-05-16T12:58:11;13.60;99.90
16388;DHT22;8303;53.446;9.988;2023-05-16T13:00:39;14.10;99.90
16388;DHT22;8303;53.446;9.988;2023-05-16T13:03:07;14.70;99.90
16388;DHT22;8303;53.446;9.988;2023-05-16T13:05:35;14.30;99.90
16388;DHT22;8303;53.446;9.988;2023-05-16T13:08:02;13.60;99.90
16388;DHT22;8303;53.446;9.988;2023-05-16T13:10:31;13.10;99.90
16388;DHT22;8303;53.446;9.988;2023-05-16T13:12:58;12.80;99.90
16388;DHT22;8303;53.446;9.988;2023-05-16T13:15:25;12.90;99.90
16388;DHT22;8303;53.446;9.988;2023-05-16T13:17:52;13.50;99.90
16388;DHT22;8303;53.446;9.988;2023-05-16T13:20:20;13.60;99.90
16388;DHT22;8303;53.446;9.988;2023-05-16T13:22:47;13.60;99.90
16388;DHT22;8303;53.446;9.988;2023-05-16T13:25:14;13.40;99.90
16388;DHT22;8303;53.446;9.988;2023-05-16T13:27:43;13.80;99.90
16388;DHT22;8303;53.446;9.988;2023-05-16T13:30:11;14.20;99.90
16388;DHT22;8303;53.446;9.988;2023-05-16T13:32:38;14.50;99.90
16388;DHT22;8303;53.446;9.988;2023-05-16T13:35:06;14.40;99.90
16388;DHT22;8303;53.446;9.988;2023-05-16T13:37:35;13.50;99.90
16388;DHT22;8303;53.446;9.988;2023-05-16T13:40:03;13.20;99.90
16388;DHT22;8303;53.446;9.988;2023-05-16T13:42:34;13.10;99.90
16388;DHT22;8303;53.446;9.988;2023-05-16T13:45:04;12.70;99.90
16388;DHT22;8303;53.446;9.988;2023-05-16T13:47:32;13.30;99.90
16388;DHT22;8303;53.446;9.988;2023-05-16T13:49:59;13.90;99.90
16388;DHT22;8303;53.446;9.988;2023-05-16T13:52:30;14.00;99.90
16388;DHT22;8303;53.446;9.988;2023-05-16T13:54:58;14.20;99.90
16388;DHT22;8303;53.446;9.988;2023-05-16T13:57:25;13.90;99.90
16388;DHT22;8303;53.446;9.988;2023-05-16T13:59:52;13.10;99.90
16388;DHT22;8303;53.446;9.988;2023-05-16T14:02:21;12.60;99.90
16388;DHT22;8303;53.446;9.988;2023-05-16T14:04:50;12.90;99.90
16388;DHT22;8303;53.446;9.988;2023-05-16T14:07:18;13.50;99.90
16388;DHT22;8303;53.446;9.988;2023-05-16T14:09:45;13.30;99.90
16388;DHT22;8303;53.446;9.988;2023-05-16T14:12:12;13.50;99.90
16388;DHT22;8303;53.446;9.988;2023-05-16T14:14:39;13.80;99.90
16388;DHT22;8303;53.446;9.988;2023-05-16T14:17:07;13.70;99.90
16388;DHT22;8303;53.446;9.988;2023-05-16T14:19:35;14.30;99.90
16388;DHT22;8303;53.446;9.988;2023-05-16T14:22:03;15.00;99.90
16388;DHT22;8303;53.446;9.988;2023-05-16T14:24:33;15.00;99.90
16388;DHT22;8303;53.446;9.988;2023-05-16T14:27:00;15.20;99.90
16388;DHT22;8303;53.446;9.988;2023-05-16T14:29:27;15.20;99.90
16388;DHT22;8303;53.446;9.988;2023-05-16T14:31:55;15.10;99.90
16388;DHT22;8303;53.446;9.988;2023-05-16T14:34:22;15.10;99.90
16388;DHT22;8303;53.446;9.988;2023-05-16T14:36:51;16.00;99.90
16388;DHT22;8303;53.446;9.988;2023-05-16T14:39:18;15.30;99.90
16388;DHT22;8303;53.446;9.988;2023-05-16T14:41:46;14.90;99.90
16388;DHT22;8303;53.446;9.988;2023-05-16T14:44:13;15.40;99.90
16388;DHT22;8303;53.446;9.988;2023-05-16T14:46:40;15.50;99.90
16388;DHT22;8303;53.446;9.988;2023-05-16T14:49:07;15.70;99.90
16388;DHT22;8303;53.446;9.988;2023-05-16T14:51:34;15.00;99.90
16388;DHT22;8303;53.446;9.988;2023-05-16T14:54:03;13.80;99.90
16388;DHT22;8303;53.446;9.988;2023-05-16T14:56:30;13.30;99.90
16388;DHT22;8303;53.446;9.988;2023-05-16T14:58:58;12.80;99.90
16388;DHT22;8303;53.446;9.988;2023-05-16T15:01:26;13.30;99.90
16388;DHT22;8303;53.446;9.988;2023-05-16T15:03:53;14.70;99.90
16388;DHT22;8303;53.446;9.988;2023-05-16T15:06:20;15.90;99.90
16388;DHT22;8303;53.446;9.988;2023-05-16T15:08:47;16.30;99.90
16388;DHT22;8303;53.446;9.988;2023-05-16T15:11:16;16.40;99.90
16388;DHT22;8303;53.446;9.988;2023-05-16T15:13:43;16.40;99.90
16388;DHT22;8303;53.446;9.988;2023-05-16T15:16:11;16.90;99.90
16388;DHT22;8303;53.446;9.988;2023-05-16T15:18:38;17.40;99.90
16388;DHT22;8303;53.446;9.988;2023-05-16T15:21:05;17.20;99.90
16388;DHT22;8303;53.446;9.988;2023-05-16T15:23:36;15.40;99.90
16388;DHT22;8303;53.446;9.988;2023-05-16T15:26:03;14.20;99.90
16388;DHT22;8303;53.446;9.988;2023-05-16T15:28:32;14.10;99.90
16388;DHT22;8303;53.446;9.988;2023-05-16T15:30:59;13.60;99.90
16388;DHT22;8303;53.446;9.988;2023-05-16T15:33:27;13.50;99.90
16388;DHT22;8303;53.446;9.988;2023-05-16T15:35:54;13.50;99.90
16388;DHT22;8303;53.446;9.988;2023-05-16T15:38:22;13.40;99.90
16388;DHT22;8303;53.446;9.988;2023-05-16T15:40:50;13.40;99.90
16388;DHT22;8303;53.446;9.988;2023-05-16T15:43:18;13.30;99.90
16388;DHT22;8303;53.446;9.988;2023-05-16T15:45:47;13.20;99.90
16388;DHT22;8303;53.446;9.988;2023-05-16T15:48:15;12.80;99.90
16388;DHT22;8303;53.446;9.988;2023-05-16T15:50:42;12.50;99.90
16388;DHT22;8303;53.446;9.988;2023-05-16T15:53:09;12.50;99.90
16388;DHT22;8303;53.446;9.988;2023-05-16T15:55:37;12.50;99.90
16388;DHT22;8303;53.446;9.988;2023-05-16T15:58:04;12.60;99.90
16388;DHT22;8303;53.446;9.988;2023-05-16T16:00:31;12.90;99.90
16388;DHT22;8303;53.446;9.988;2023-05-16T16:03:00;13.80;99.90
16388;DHT22;8303;53.446;9.988;2023-05-16T16:05:27;14.20;99.90
16388;DHT22;8303;53.446;9.988;2023-05-16T16:07:55;16.20;99.90
16388;DHT22;8303;53.446;9.988;2023-05-16T16:10:22;15.80;99.90
16388;DHT22;8303;53.446;9.988;2023-05-16T16:13:00;14.40;99.90
16388;DHT22;8303;53.446;9.988;2023-05-16T16:15:28;15.00;99.90
16388;DHT22;8303;53.446;9.988;2023-05-16T16:17:56;14.20;99.90
16388;DHT22;8303;53.446;9.988;2023-05-16T16:20:25;13.80;99.90
16388;DHT22;8303;53.446;9.988;2023-05-16T16:22:56;14.20;99.90
16388;DHT22;8303;53.446;9.988;2023-05-16T16:25:23;13.60;99.90
16388;DHT22;8303;53.446;9.988;2023-05-16T16:27:52;13.20;99.90
16388;DHT22;8303;53.446;9.988;2023-05-16T16:30:20;12.70;99.90
16388;DHT22;8303;53.446;9.988;2023-05-16T16:32:47;13.10;99.90
16388;DHT22;8303;53.446;9.988;2023-05-16T16:35:15;13.10;99.90
16388;DHT22;8303;53.446;9.988;2023-05-16T16:37:44;14.30;99.90
16388;DHT22;8303;53.446;9.988;2023-05-16T16:40:13;15.50;99.90
16388;DHT22;8303;53.446;9.988;2023-05-16T16:42:41;16.50;99.90
16388;DHT22;8303;53.446;9.988;2023-05-16T16:45:09;14.20;99.90
16388;DHT22;8303;53.446;9.988;2023-05-16T16:47:36;13.00;99.90
16388;DHT22;8303;53.446;9.988;2023-05-16T16:50:06;12.20;99.90
16388;DHT22;8303;53.446;9.988;2023-05-16T16:52:33;11.80;99.90
16388;DHT22;8303;53.446;9.988;2023-05-16T16:55:03;12.10;99.90
16388;DHT22;8303;53.446;9.988;2023-05-16T16:57:30;14.80;99.90
16388;DHT22;8303;53.446;9.988;2023-05-16T16:59:58;16.40;99.90
16388;DHT22;8303;53.446;9.988;2023-05-16T17:02:26;16.30;99.90
16388;DHT22;8303;53.446;9.988;2023-05-16T17:04:53;14.80;99.90
16388;DHT22;8303;53.446;9.988;2023-05-16T17:07:20;13.50;99.90
16388;DHT22;8303;53.446;9.988;2023-05-16T17:09:47;12.90;99.90
16388;DHT22;8303;53.446;9.988;2023-05-16T17:12:16;12.50;99.90
16388;DHT22;8303;53.446;9.988;2023-05-16T17:14:45;12.20;99.90
16388;DHT22;8303;53.446;9.988;2023-05-16T17:17:13;12.10;99.90
16388;DHT22;8303;53.446;9.988;2023-05-16T17:19:41;11.90;1.00
16388;DHT22;8303;53.446;9.988;2023-05-16T17:22:08;11.90;1.00
16388;DHT22;8303;53.446;9.988;2023-05-16T17:24:36;11.70;1.00
16388;DHT22;8303;53.446;9.988;2023-05-16T17:27:04;11.40;1.00
16388;DHT22;8303;53.446;9.988;2023-05-16T17:29:32;11.30;1.00
16388;DHT22;8303;53.446;9.988;2023-05-16T17:32:00;11.30;1.00
16388;DHT22;8303;53.446;9.988;2023-05-16T17:34:27;11.10;1.00
16388;DHT22;8303;53.446;9.988;2023-05-16T17:36:54;11.10;1.00
16388;DHT22;8303;53.446;9.988;2023-05-16T17:39:21;11.10;1.00
16388;DHT22;8303;53.446;9.988;2023-05-16T17:41:49;11.00;1.00
16388;DHT22;8303;53.446;9.988;2023-05-16T17:44:18;11.00;1.00
16388;DHT22;8303;53.446;9.988;2023-05-16T17:46:47;11.00;1.00
16388;DHT22;8303;53.446;9.988;2023-05-16T17:49:14;10.90;1.00
16388;DHT22;8303;53.446;9.988;2023-05-16T17:51:49;10.80;1.00
16388;DHT22;8303;53.446;9.988;2023-05-16T17:54:16;10.70;1.00
16388;DHT22;8303;53.446;9.988;2023-05-16T17:56:44;10.70;1.00
16388;DHT22;8303;53.446;9.988;2023-05-16T17:59:12;10.60;1.00
16388;DHT22;8303;53.446;9.988;2023-05-16T18:01:39;10.60;1.00
16388;DHT22;8303;53.446;9.988;2023-05-16T18:04:08;10.60;1.00
16388;DHT22;8303;53.446;9.988;2023-05-16T18:06:36;10.70;1.00
16388;DHT22;8303;53.446;9.988;2023-05-16T18:09:04;10.70;1.00
16388;DHT22;8303;53.446;9.988;2023-05-16T18:11:35;10.70;1.00
16388;DHT22;8303;53.446;9.988;2023-05-16T18:14:02;10.70;1.00
16388;DHT22;8303;53.446;9.988;2023-05-16T18:16:29;10.70;1.00
16388;DHT22;8303;53.446;9.988;2023-05-16T18:18:57;10.70;1.00
16388;DHT22;8303;53.446;9.988;2023-05-16T18:21:26;10.80;1.00
16388;DHT22;8303;53.446;9.988;2023-05-16T18:23:53;10.70;1.00
16388;DHT22;8303;53.446;9.988;2023-05-16T18:26:23;10.70;1.00
16388;DHT22;8303;53.446;9.988;2023-05-16T18:28:50;10.70;1.00
16388;DHT22;8303;53.446;9.988;2023-05-16T18:31:17;10.70;1.00
16388;DHT22;8303;53.446;9.988;2023-05-16T18:33:47;10.70;1.00
16388;DHT22;8303;53.446;9.988;2023-05-16T18:36:14;10.70;1.00
16388;DHT22;8303;53.446;9.988;2023-05-16T18:38:43;10.70;1.00
16388;DHT22;8303;53.446;9.988;2023-05-16T18:41:10;10.70;1.00
16388;DHT22;8303;53.446;9.988;2023-05-16T18:43:37;10.70;1.00
16388;DHT22;8303;53.446;9.988;2023-05-16T18:46:04;10.70;1.00
16388;DHT22;8303;53.446;9.988;2023-05-16T18:48:32;10.60;1.00
16388;DHT22;8303;53.446;9.988;2023-05-16T18:50:59;10.60;1.00
16388;DHT22;8303;53.446;9.988;2023-05-16T18:53:26;10.50;1.00
16388;DHT22;8303;53.446;9.988;2023-05-16T18:55:55;10.50;1.00
16388;DHT22;8303;53.446;9.988;2023-05-16T18:58:22;10.40;1.00
16388;DHT22;8303;53.446;9.988;2023-05-16T19:00:49;10.40;1.00
16388;DHT22;8303;53.446;9.988;2023-05-16T19:03:17;10.40;1.00
16388;DHT22;8303;53.446;9.988;2023-05-16T19:05:44;10.40;1.00
16388;DHT22;8303;53.446;9.988;2023-05-16T19:08:12;10.20;1.00
16388;DHT22;8303;53.446;9.988;2023-05-16T19:10:39;10.10;1.00
16388;DHT22;8303;53.446;9.988;2023-05-16T19:13:08;10.10;1.00
16388;DHT22;8303;53.446;9.988;2023-05-16T19:15:36;10.00;1.00
16388;DHT22;8303;53.446;9.988;2023-05-16T19:18:04;9.90;1.00
16388;DHT22;8303;53.446;9.988;2023-05-16T19:20:33;9.90;1.00
16388;DHT22;8303;53.446;9.988;2023-05-16T19:23:01;9.80;1.00
16388;DHT22;8303;53.446;9.988;2023-05-16T19:25:29;9.70;31.80
16388;DHT22;8303;53.446;9.988;2023-05-16T19:27:57;9.60;65.60
16388;DHT22;8303;53.446;9.988;2023-05-16T19:30:26;9.60;96.60
16388;DHT22;8303;53.446;9.988;2023-05-16T19:32:54;9.60;99.90
16388;DHT22;8303;53.446;9.988;2023-05-16T19:35:21;9.70;99.90
16388;DHT22;8303;53.446;9.988;2023-05-16T19:37:49;9.70;99.90
16388;DHT22;8303;53.446;9.988;2023-05-16T19:40:16;9.70;99.90
16388;DHT22;8303;53.446;9.988;2023-05-16T19:42:43;9.70;97.80
16388;DHT22;8303;53.446;9.988;2023-05-16T19:45:11;9.70;94.30
16388;DHT22;8303;53.446;9.988;2023-05-16T19:47:39;9.70;67.90
16388;DHT22;8303;53.446;9.988;2023-05-16T19:50:07;9.70;38.80
16388;DHT22;8303;53.446;9.988;2023-05-16T19:52:35;9.70;26.40
16388;DHT22;8303;53.446;9.988;2023-05-16T19:55:04;9.70;21.50
16388;DHT22;8303;53.446;9.988;2023-05-16T19:57:32;9.70;26.80
16388;DHT22;8303;53.446;9.988;2023-05-16T19:59:59;9.70;14.50
16388;DHT22;8303;53.446;9.988;2023-05-16T20:02:27;9.70;20.70
16388;DHT22;8303;53.446;9.988;2023-05-16T20:04:56;9.70;12.00
16388;DHT22;8303;53.446;9.988;2023-05-16T20:07:23;9.70;14.30
16388;DHT22;8303;53.446;9.988;2023-05-16T20:09:52;9.80;4.20
16388;DHT22;8303;53.446;9.988;2023-05-16T20:12:20;9.80;1.00
16388;DHT22;8303;53.446;9.988;2023-05-16T20:14:48;9.80;1.00
16388;DHT22;8303;53.446;9.988;2023-05-16T20:17:16;9.80;1.40
16388;DHT22;8303;53.446;9.988;2023-05-16T20:19:44;9.80;1.00
16388;DHT22;8303;53.446;9.988;2023-05-16T20:22:13;9.80;1.00
16388;DHT22;8303;53.446;9.988;2023-05-16T20:24:40;9.80;1.00
16388;DHT22;8303;53.446;9.988;2023-05-16T20:27:07;9.80;1.00
16388;DHT22;8303;53.446;9.988;2023-05-16T20:29:34;9.90;1.00
